sensor_id;sensor_type;location;lat;lon;timestamp;pressure;altitude;pressure_sealevel;temperature;humidity
72308;BME280;60257;42.638;23.376;2023-04-03T00:01:20;94001.19;;;7.10;63.94
72308;BME280;60257;42.638;23.376;2023-04-03T00:03:46;93999.81;;;7.04;64.14
72308;BME280;60257;42.638;23.376;2023-04-03T00:06:12;93995.38;;;7.00;63.75
72308;BME280;60257;42.638;23.376;2023-04-03T00:08:39;93983.22;;;6.97;63.81
72308;BME280;60257;42.638;23.376;2023-04-03T00:11:06;93989.13;;;6.99;64.06
72308;BME280;60257;42.638;23.376;2023-04-03T00:13:32;93979.34;;;6.98;63.85
72308;BME280;60257;42.638;23.376;2023-04-03T00:15:58;93982.66;;;6.91;64.19
72308;BME280;60257;42.638;23.376;2023-04-03T00:18:24;93978.91;;;6.84;64.08
72308;BME280;60257;42.638;23.376;2023-04-03T00:20:49;93972.66;;;6.83;63.92
72308;BME280;60257;42.638;23.376;2023-04-03T00:23:15;93983.47;;;6.80;64.40
72308;BME280;60257;42.638;23.376;2023-04-03T00:25:41;93981.53;;;6.80;64.60
72308;BME280;60257;42.638;23.376;2023-04-03T00:28:07;93976.97;;;6.72;64.80
72308;BME280;60257;42.638;23.376;2023-04-03T00:30:33;93975.25;;;6.68;64.79
72308;BME280;60257;42.638;23.376;2023-04-03T00:32:58;93978.31;;;6.66;65.15
72308;BME280;60257;42.638;23.376;2023-04-03T00:35:24;93979.09;;;6.54;65.77
72308;BME280;60257;42.638;23.376;2023-04-03T00:37:54;93978.16;;;6.38;66.46
72308;BME280;60257;42.638;23.376;2023-04-03T00:40:21;93983.84;;;6.33;66.67
72308;BME280;60257;42.638;23.376;2023-04-03T00:42:50;93985.91;;;6.48;65.84
72308;BME280;60257;42.638;23.376;2023-04-03T00:45:35;93980.78;;;6.47;65.82
72308;BME280;60257;42.638;23.376;2023-04-03T00:48:03;93975.66;;;6.33;66.32
72308;BME280;60257;42.638;23.376;2023-04-03T00:50:31;93982.22;;;6.32;66.89
72308;BME280;60257;42.638;23.376;2023-04-03T00:52:58;93984.91;;;6.20;67.23
72308;BME280;60257;42.638;23.376;2023-04-03T00:55:24;93980.72;;;6.23;66.98
72308;BME280;60257;42.638;23.376;2023-04-03T00:57:51;93984.72;;;6.25;67.40
72308;BME280;60257;42.638;23.376;2023-04-03T01:00:19;93988.00;;;6.18;67.37
72308;BME280;60257;42.638;23.376;2023-04-03T01:02:45;93979.56;;;6.11;67.72
72308;BME280;60257;42.638;23.376;2023-04-03T01:05:12;93985.13;;;6.15;67.83
72308;BME280;60257;42.638;23.376;2023-04-03T01:07:39;93982.06;;;6.16;67.94
72308;BME280;60257;42.638;23.376;2023-04-03T01:10:09;93970.47;;;6.07;67.70
72308;BME280;60257;42.638;23.376;2023-04-03T01:12:40;93987.38;;;6.13;68.29
72308;BME280;60257;42.638;23.376;2023-04-03T01:15:17;93986.75;;;6.28;67.49
72308;BME280;60257;42.638;23.376;2023-04-03T01:17:51;93985.50;;;6.26;67.33
72308;BME280;60257;42.638;23.376;2023-04-03T01:25:34;93978.63;;;6.07;68.29
72308;BME280;60257;42.638;23.376;2023-04-03T01:28:02;93983.97;;;6.04;68.27
72308;BME280;60257;42.638;23.376;2023-04-03T01:30:33;93991.34;;;6.03;68.78
72308;BME280;60257;42.638;23.376;2023-04-03T01:33:00;93979.19;;;6.01;68.82
72308;BME280;60257;42.638;23.376;2023-04-03T01:35:26;93985.69;;;6.08;69.06
72308;BME280;60257;42.638;23.376;2023-04-03T01:37:51;93990.31;;;6.08;68.71
72308;BME280;60257;42.638;23.376;2023-04-03T01:40:17;93980.97;;;5.97;69.02
72308;BME280;60257;42.638;23.376;2023-04-03T01:42:42;93991.84;;;5.97;68.80
72308;BME280;60257;42.638;23.376;2023-04-03T01:45:08;93986.41;;;5.97;68.76
72308;BME280;60257;42.638;23.376;2023-04-03T01:47:34;93984.75;;;5.84;69.07
72308;BME280;60257;42.638;23.376;2023-04-03T01:50:00;93987.47;;;5.84;69.02
72308;BME280;60257;42.638;23.376;2023-04-03T01:52:26;93998.34;;;5.84;69.08
72308;BME280;60257;42.638;23.376;2023-04-03T01:54:51;93984.28;;;5.81;69.02
72308;BME280;60257;42.638;23.376;2023-04-03T01:57:16;94005.06;;;5.86;69.35
72308;BME280;60257;42.638;23.376;2023-04-03T01:59:42;93988.44;;;5.88;68.75
72308;BME280;60257;42.638;23.376;2023-04-03T02:02:07;94003.59;;;5.89;69.61
72308;BME280;60257;42.638;23.376;2023-04-03T02:04:33;93991.47;;;5.86;69.64
72308;BME280;60257;42.638;23.376;2023-04-03T02:06:58;93992.41;;;5.90;69.32
72308;BME280;60257;42.638;23.376;2023-04-03T02:09:24;93998.16;;;5.89;68.46
72308;BME280;60257;42.638;23.376;2023-04-03T02:11:50;93986.81;;;5.87;68.24
72308;BME280;60257;42.638;23.376;2023-04-03T02:14:15;93989.72;;;5.81;68.45
72308;BME280;60257;42.638;23.376;2023-04-03T02:16:41;94001.75;;;5.80;68.46
72308;BME280;60257;42.638;23.376;2023-04-03T02:19:06;94002.75;;;5.76;68.52
72308;BME280;60257;42.638;23.376;2023-04-03T02:21:32;94003.88;;;5.75;68.23
72308;BME280;60257;42.638;23.376;2023-04-03T02:23:57;94002.75;;;5.76;68.29
72308;BME280;60257;42.638;23.376;2023-04-03T02:26:23;93989.09;;;5.64;68.73
72308;BME280;60257;42.638;23.376;2023-04-03T02:28:48;93990.38;;;5.58;69.78
72308;BME280;60257;42.638;23.376;2023-04-03T02:31:14;93993.78;;;5.55;69.52
72308;BME280;60257;42.638;23.376;2023-04-03T02:33:39;93988.34;;;5.55;69.46
72308;BME280;60257;42.638;23.376;2023-04-03T02:36:06;93983.88;;;5.50;69.93
72308;BME280;60257;42.638;23.376;2023-04-03T02:38:32;93981.38;;;5.45;70.06
72308;BME280;60257;42.638;23.376;2023-04-03T02:41:02;93982.50;;;5.44;70.04
72308;BME280;60257;42.638;23.376;2023-04-03T02:43:28;93986.34;;;5.43;69.42
72308;BME280;60257;42.638;23.376;2023-04-03T02:45:53;93989.75;;;5.40;69.67
72308;BME280;60257;42.638;23.376;2023-04-03T02:48:19;93989.13;;;5.34;69.80
72308;BME280;60257;42.638;23.376;2023-04-03T02:50:44;93985.28;;;5.35;70.00
72308;BME280;60257;42.638;23.376;2023-04-03T02:53:10;93977.91;;;5.36;69.71
72308;BME280;60257;42.638;23.376;2023-04-03T02:55:35;93970.56;;;5.36;69.60
72308;BME280;60257;42.638;23.376;2023-04-03T02:58:01;93958.56;;;5.37;69.51
72308;BME280;60257;42.638;23.376;2023-04-03T03:00:26;93968.31;;;5.38;69.27
72308;BME280;60257;42.638;23.376;2023-04-03T03:02:52;93977.47;;;5.34;69.76
72308;BME280;60257;42.638;23.376;2023-04-03T03:05:17;93966.94;;;5.32;69.82
72308;BME280;60257;42.638;23.376;2023-04-03T03:07:42;93970.56;;;5.36;69.72
72308;BME280;60257;42.638;23.376;2023-04-03T03:10:08;93958.16;;;5.27;69.62
72308;BME280;60257;42.638;23.376;2023-04-03T03:12:34;93954.72;;;5.18;69.94
72308;BME280;60257;42.638;23.376;2023-04-03T03:14:59;93947.28;;;5.06;70.24
72308;BME280;60257;42.638;23.376;2023-04-03T03:17:25;93955.03;;;5.16;70.12
72308;BME280;60257;42.638;23.376;2023-04-03T03:19:50;93956.75;;;5.21;69.75
72308;BME280;60257;42.638;23.376;2023-04-03T03:22:16;93958.84;;;5.24;69.50
72308;BME280;60257;42.638;23.376;2023-04-03T03:24:41;93958.56;;;5.37;68.65
72308;BME280;60257;42.638;23.376;2023-04-03T03:27:07;93963.88;;;5.34;68.41
72308;BME280;60257;42.638;23.376;2023-04-03T03:29:32;93955.72;;;5.34;68.41
72308;BME280;60257;42.638;23.376;2023-04-03T03:31:58;93957.72;;;5.25;69.21
72308;BME280;60257;42.638;23.376;2023-04-03T03:34:23;93955.16;;;5.20;69.46
72308;BME280;60257;42.638;23.376;2023-04-03T03:36:49;93952.13;;;5.21;69.56
72308;BME280;60257;42.638;23.376;2023-04-03T03:39:15;93957.03;;;5.28;69.71
72308;BME280;60257;42.638;23.376;2023-04-03T03:41:40;93962.03;;;5.26;69.59
72308;BME280;60257;42.638;23.376;2023-04-03T03:44:06;93948.75;;;5.24;69.31
72308;BME280;60257;42.638;23.376;2023-04-03T03:46:31;93955.72;;;5.34;68.16
72308;BME280;60257;42.638;23.376;2023-04-03T03:48:56;93954.41;;;5.40;67.94
72308;BME280;60257;42.638;23.376;2023-04-03T03:51:22;93957.97;;;5.32;68.21
72308;BME280;60257;42.638;23.376;2023-04-03T03:53:48;93955.97;;;5.20;68.55
72308;BME280;60257;42.638;23.376;2023-04-03T03:56:13;93960.28;;;5.21;68.74
72308;BME280;60257;42.638;23.376;2023-04-03T03:58:38;93957.72;;;5.25;68.90
72308;BME280;60257;42.638;23.376;2023-04-03T04:01:05;93962.34;;;5.24;69.04
72308;BME280;60257;42.638;23.376;2023-04-03T04:03:31;93966.97;;;5.24;68.75
72308;BME280;60257;42.638;23.376;2023-04-03T04:05:56;93961.28;;;5.17;69.01
72308;BME280;60257;42.638;23.376;2023-04-03T04:08:22;93952.44;;;5.20;68.83
72308;BME280;60257;42.638;23.376;2023-04-03T04:10:48;93955.53;;;5.18;69.11
72308;BME280;60257;42.638;23.376;2023-04-03T04:13:13;93957.28;;;5.14;69.24
72308;BME280;60257;42.638;23.376;2023-04-03T04:15:39;93971.34;;;5.16;69.13
72308;BME280;60257;42.638;23.376;2023-04-03T04:18:05;93963.66;;;5.18;69.37
72308;BME280;60257;42.638;23.376;2023-04-03T04:20:31;93967.78;;;5.24;69.01
72308;BME280;60257;42.638;23.376;2023-04-03T04:22:56;93960.75;;;5.23;69.00
72308;BME280;60257;42.638;23.376;2023-04-03T04:25:22;93974.03;;;5.25;68.87
72308;BME280;60257;42.638;23.376;2023-04-03T04:27:47;93960.97;;;5.18;69.05
72308;BME280;60257;42.638;23.376;2023-04-03T04:30:14;93970.78;;;5.31;68.98
72308;BME280;60257;42.638;23.376;2023-04-03T04:32:40;93976.47;;;5.38;68.65
72308;BME280;60257;42.638;23.376;2023-04-03T04:35:06;93975.63;;;5.47;68.34
72308;BME280;60257;42.638;23.376;2023-04-03T04:37:31;93986.28;;;5.52;68.54
72308;BME280;60257;42.638;23.376;2023-04-03T04:39:57;93981.31;;;5.54;68.85
72308;BME280;60257;42.638;23.376;2023-04-03T04:42:22;93968.31;;;5.59;68.64
72308;BME280;60257;42.638;23.376;2023-04-03T04:44:48;93974.81;;;5.67;68.13
72308;BME280;60257;42.638;23.376;2023-04-03T04:47:14;93983.91;;;5.71;68.12
72308;BME280;60257;42.638;23.376;2023-04-03T04:49:39;93988.66;;;5.74;67.82
72308;BME280;60257;42.638;23.376;2023-04-03T04:52:05;93989.81;;;5.94;66.99
72308;BME280;60257;42.638;23.376;2023-04-03T04:54:32;93981.19;;;5.92;67.31
72308;BME280;60257;42.638;23.376;2023-04-03T04:57:00;93994.78;;;5.92;67.21
72308;BME280;60257;42.638;23.376;2023-04-03T04:59:26;93999.91;;;5.93;68.06
72308;BME280;60257;42.638;23.376;2023-04-03T05:01:51;94005.13;;;5.98;67.91
72308;BME280;60257;42.638;23.376;2023-04-03T05:04:17;94011.31;;;6.07;68.39
72308;BME280;60257;42.638;23.376;2023-04-03T05:06:42;94007.13;;;6.10;67.89
72308;BME280;60257;42.638;23.376;2023-04-03T05:09:08;94016.19;;;6.14;67.17
72308;BME280;60257;42.638;23.376;2023-04-03T05:11:35;94017.47;;;6.16;67.07
72308;BME280;60257;42.638;23.376;2023-04-03T05:14:00;94019.16;;;6.21;67.00
72308;BME280;60257;42.638;23.376;2023-04-03T05:16:26;94023.75;;;6.29;67.03
72308;BME280;60257;42.638;23.376;2023-04-03T05:18:51;94017.56;;;6.53;66.12
72308;BME280;60257;42.638;23.376;2023-04-03T05:21:16;94022.94;;;6.62;65.47
72308;BME280;60257;42.638;23.376;2023-04-03T05:23:43;94014.88;;;6.65;65.54
72308;BME280;60257;42.638;23.376;2023-04-03T05:26:09;94015.69;;;6.66;65.21
72308;BME280;60257;42.638;23.376;2023-04-03T05:28:34;94015.69;;;6.78;64.90
72308;BME280;60257;42.638;23.376;2023-04-03T05:31:00;94015.13;;;6.72;64.91
72308;BME280;60257;42.638;23.376;2023-04-03T05:33:26;94019.97;;;6.54;65.84
72308;BME280;60257;42.638;23.376;2023-04-03T05:35:52;94026.22;;;6.55;65.67
72308;BME280;60257;42.638;23.376;2023-04-03T05:38:18;94005.06;;;6.52;66.21
72308;BME280;60257;42.638;23.376;2023-04-03T05:40:43;93997.50;;;6.70;65.88
72308;BME280;60257;42.638;23.376;2023-04-03T05:43:09;94008.06;;;6.71;65.70
72308;BME280;60257;42.638;23.376;2023-04-03T05:45:34;94003.53;;;6.75;65.78
72308;BME280;60257;42.638;23.376;2023-04-03T05:48:00;94011.41;;;6.89;65.53
72308;BME280;60257;42.638;23.376;2023-04-03T05:50:25;94009.69;;;7.09;65.58
72308;BME280;60257;42.638;23.376;2023-04-03T05:52:52;94004.59;;;7.19;65.43
72308;BME280;60257;42.638;23.376;2023-04-03T05:55:20;94002.41;;;7.25;65.19
72308;BME280;60257;42.638;23.376;2023-04-03T05:57:45;93995.59;;;7.31;64.82
72308;BME280;60257;42.638;23.376;2023-04-03T06:00:15;93992.16;;;7.46;64.51
72308;BME280;60257;42.638;23.376;2023-04-03T06:02:41;93989.44;;;7.46;64.42
72308;BME280;60257;42.638;23.376;2023-04-03T06:05:07;93986.34;;;7.60;64.11
72308;BME280;60257;42.638;23.376;2023-04-03T06:07:33;93987.53;;;7.87;64.38
72308;BME280;60257;42.638;23.376;2023-04-03T06:09:59;93985.06;;;8.09;63.07
72308;BME280;60257;42.638;23.376;2023-04-03T06:12:26;93980.84;;;8.12;62.57
72308;BME280;60257;42.638;23.376;2023-04-03T06:14:54;93976.31;;;8.04;62.21
72308;BME280;60257;42.638;23.376;2023-04-03T06:17:20;93981.59;;;7.97;62.91
72308;BME280;60257;42.638;23.376;2023-04-03T06:19:45;93973.22;;;8.05;62.29
72308;BME280;60257;42.638;23.376;2023-04-03T06:22:11;93977.97;;;8.21;62.45
72308;BME280;60257;42.638;23.376;2023-04-03T06:24:37;93985.25;;;8.44;62.22
72308;BME280;60257;42.638;23.376;2023-04-03T06:27:03;93982.72;;;8.52;62.39
72308;BME280;60257;42.638;23.376;2023-04-03T06:29:29;93990.34;;;8.74;62.26
72308;BME280;60257;42.638;23.376;2023-04-03T06:31:54;93990.16;;;8.82;60.81
72308;BME280;60257;42.638;23.376;2023-04-03T06:34:20;93998.00;;;8.84;60.38
72308;BME280;60257;42.638;23.376;2023-04-03T06:36:46;94000.50;;;8.89;60.37
72308;BME280;60257;42.638;23.376;2023-04-03T06:39:18;94010.09;;;8.99;60.47
72308;BME280;60257;42.638;23.376;2023-04-03T06:41:46;94009.22;;;8.95;59.98
72308;BME280;60257;42.638;23.376;2023-04-03T06:44:11;94006.47;;;8.95;60.05
72308;BME280;60257;42.638;23.376;2023-04-03T06:46:38;93995.88;;;8.77;60.11
72308;BME280;60257;42.638;23.376;2023-04-03T06:49:05;93990.25;;;9.02;59.66
72308;BME280;60257;42.638;23.376;2023-04-03T06:51:33;93996.69;;;9.25;59.01
72308;BME280;60257;42.638;23.376;2023-04-03T06:54:00;93990.69;;;9.19;59.28
72308;BME280;60257;42.638;23.376;2023-04-03T06:56:27;94008.41;;;9.25;59.10
72308;BME280;60257;42.638;23.376;2023-04-03T06:58:53;94003.81;;;9.14;58.56
72308;BME280;60257;42.638;23.376;2023-04-03T07:01:27;94007.81;;;9.01;59.24
72308;BME280;60257;42.638;23.376;2023-04-03T07:03:53;94006.47;;;9.10;59.37
72308;BME280;60257;42.638;23.376;2023-04-03T07:06:19;94003.63;;;9.38;58.71
72308;BME280;60257;42.638;23.376;2023-04-03T07:08:45;93983.66;;;9.53;58.34
72308;BME280;60257;42.638;23.376;2023-04-03T07:11:12;93997.91;;;9.78;58.02
72308;BME280;60257;42.638;23.376;2023-04-03T07:13:38;93991.28;;;9.79;57.85
72308;BME280;60257;42.638;23.376;2023-04-03T07:16:04;93975.59;;;9.60;58.12
72308;BME280;60257;42.638;23.376;2023-04-03T07:18:32;93973.69;;;9.45;58.70
72308;BME280;60257;42.638;23.376;2023-04-03T07:20:57;93971.44;;;9.67;58.45
72308;BME280;60257;42.638;23.376;2023-04-03T07:23:23;93981.53;;;9.47;58.84
72308;BME280;60257;42.638;23.376;2023-04-03T07:25:50;93980.53;;;9.36;59.51
72308;BME280;60257;42.638;23.376;2023-04-03T07:28:18;93970.16;;;9.45;59.57
72308;BME280;60257;42.638;23.376;2023-04-03T07:30:50;93973.81;;;9.68;59.42
72308;BME280;60257;42.638;23.376;2023-04-03T07:33:17;93970.06;;;9.76;59.06
72308;BME280;60257;42.638;23.376;2023-04-03T07:35:43;93970.00;;;9.73;58.93
72308;BME280;60257;42.638;23.376;2023-04-03T07:38:09;93973.13;;;9.90;58.85
72308;BME280;60257;42.638;23.376;2023-04-03T07:40:36;93961.47;;;10.13;58.05
72308;BME280;60257;42.638;23.376;2023-04-03T07:43:04;93954.75;;;10.10;58.06
72308;BME280;60257;42.638;23.376;2023-04-03T07:45:30;93952.50;;;10.16;57.75
72308;BME280;60257;42.638;23.376;2023-04-03T07:48:00;93959.88;;;10.31;57.09
72308;BME280;60257;42.638;23.376;2023-04-03T07:50:27;93964.66;;;10.34;56.86
72308;BME280;60257;42.638;23.376;2023-04-03T07:52:53;93959.28;;;10.41;56.93
72308;BME280;60257;42.638;23.376;2023-04-03T07:55:21;93950.63;;;10.39;56.76
72308;BME280;60257;42.638;23.376;2023-04-03T07:57:46;93950.75;;;10.46;56.54
72308;BME280;60257;42.638;23.376;2023-04-03T08:00:13;93956.06;;;10.35;56.46
72308;BME280;60257;42.638;23.376;2023-04-03T08:02:39;93956.63;;;10.45;56.67
72308;BME280;60257;42.638;23.376;2023-04-03T08:05:05;93953.50;;;10.46;56.60
72308;BME280;60257;42.638;23.376;2023-04-03T08:07:30;93961.81;;;10.50;56.44
72308;BME280;60257;42.638;23.376;2023-04-03T08:09:56;93951.06;;;10.60;55.93
72308;BME280;60257;42.638;23.376;2023-04-03T08:12:22;93945.38;;;10.72;55.49
72308;BME280;60257;42.638;23.376;2023-04-03T08:14:47;93946.41;;;10.87;55.38
72308;BME280;60257;42.638;23.376;2023-04-03T08:17:13;93940.97;;;11.13;54.91
72308;BME280;60257;42.638;23.376;2023-04-03T08:19:39;93954.59;;;11.33;54.57
72308;BME280;60257;42.638;23.376;2023-04-03T08:22:05;93945.00;;;11.46;54.00
72308;BME280;60257;42.638;23.376;2023-04-03T08:24:34;93941.63;;;11.56;54.43
72308;BME280;60257;42.638;23.376;2023-04-03T08:27:00;93938.34;;;11.73;53.70
72308;BME280;60257;42.638;23.376;2023-04-03T08:29:26;93942.53;;;11.90;52.79
72308;BME280;60257;42.638;23.376;2023-04-03T08:31:52;93941.34;;;11.91;52.89
72308;BME280;60257;42.638;23.376;2023-04-03T08:34:18;93935.16;;;11.98;53.32
72308;BME280;60257;42.638;23.376;2023-04-03T08:36:44;93934.72;;;11.95;53.64
72308;BME280;60257;42.638;23.376;2023-04-03T08:39:10;93929.41;;;12.10;53.80
72308;BME280;60257;42.638;23.376;2023-04-03T08:41:42;93929.38;;;12.06;54.08
72308;BME280;60257;42.638;23.376;2023-04-03T08:49:40;93918.50;;;12.17;53.35
72308;BME280;60257;42.638;23.376;2023-04-03T08:52:14;93917.41;;;12.25;53.16
72308;BME280;60257;42.638;23.376;2023-04-03T08:54:52;93911.53;;;12.23;52.96
72308;BME280;60257;42.638;23.376;2023-04-03T08:57:26;93905.47;;;12.47;52.69
72308;BME280;60257;42.638;23.376;2023-04-03T08:59:53;93909.16;;;12.58;52.37
72308;BME280;60257;42.638;23.376;2023-04-03T09:02:32;93903.66;;;12.58;51.99
72308;BME280;60257;42.638;23.376;2023-04-03T09:04:59;93900.53;;;12.60;52.50
72308;BME280;60257;42.638;23.376;2023-04-03T09:07:36;93899.44;;;12.71;52.82
72308;BME280;60257;42.638;23.376;2023-04-03T09:10:04;93891.81;;;12.98;51.53
72308;BME280;60257;42.638;23.376;2023-04-03T09:12:39;93894.34;;;13.18;50.89
72308;BME280;60257;42.638;23.376;2023-04-03T09:15:23;93891.69;;;13.28;50.58
72308;BME280;60257;42.638;23.376;2023-04-03T09:23:30;93875.22;;;13.35;49.99
72308;BME280;60257;42.638;23.376;2023-04-03T09:26:09;93877.94;;;13.32;49.94
72308;BME280;60257;42.638;23.376;2023-04-03T09:28:39;93877.22;;;13.42;49.35
72308;BME280;60257;42.638;23.376;2023-04-03T09:31:19;93878.13;;;13.64;48.78
72308;BME280;60257;42.638;23.376;2023-04-03T09:33:48;93870.34;;;13.76;48.60
72308;BME280;60257;42.638;23.376;2023-04-03T09:36:42;93877.06;;;13.82;47.84
72308;BME280;60257;42.638;23.376;2023-04-03T09:39:12;93866.47;;;13.92;47.18
72308;BME280;60257;42.638;23.376;2023-04-03T09:41:38;93866.91;;;14.04;46.35
72308;BME280;60257;42.638;23.376;2023-04-03T09:44:20;93859.44;;;14.05;46.17
72308;BME280;60257;42.638;23.376;2023-04-03T09:46:46;93864.09;;;13.90;45.56
72308;BME280;60257;42.638;23.376;2023-04-03T09:49:12;93861.72;;;13.88;46.00
72308;BME280;60257;42.638;23.376;2023-04-03T09:51:38;93861.28;;;13.79;46.59
72308;BME280;60257;42.638;23.376;2023-04-03T09:54:32;93857.25;;;13.63;47.39
72308;BME280;60257;42.638;23.376;2023-04-03T09:57:14;93860.78;;;13.56;48.20
72308;BME280;60257;42.638;23.376;2023-04-03T09:59:56;93849.34;;;13.51;48.40
72308;BME280;60257;42.638;23.376;2023-04-03T10:02:35;93854.06;;;13.46;47.18
72308;BME280;60257;42.638;23.376;2023-04-03T10:05:03;93856.69;;;13.32;46.43
72308;BME280;60257;42.638;23.376;2023-04-03T10:07:36;93853.88;;;13.22;46.59
72308;BME280;60257;42.638;23.376;2023-04-03T10:10:21;93848.22;;;13.00;48.02
72308;BME280;60257;42.638;23.376;2023-04-03T10:13:19;93850.06;;;12.89;48.94
72308;BME280;60257;42.638;23.376;2023-04-03T10:16:09;93839.88;;;12.93;48.05
72308;BME280;60257;42.638;23.376;2023-04-03T10:18:45;93849.28;;;12.89;48.26
72308;BME280;60257;42.638;23.376;2023-04-03T10:21:53;93847.00;;;13.01;48.13
72308;BME280;60257;42.638;23.376;2023-04-03T10:24:25;93839.94;;;13.00;48.57
72308;BME280;60257;42.638;23.376;2023-04-03T10:27:08;93845.13;;;13.13;48.07
72308;BME280;60257;42.638;23.376;2023-04-03T10:32:30;93830.91;;;13.03;48.12
72308;BME280;60257;42.638;23.376;2023-04-03T10:38:09;93829.78;;;13.08;48.22
72308;BME280;60257;42.638;23.376;2023-04-03T10:41:17;93820.72;;;13.07;47.49
72308;BME280;60257;42.638;23.376;2023-04-03T10:46:53;93820.22;;;12.91;47.60
72308;BME280;60257;42.638;23.376;2023-04-03T10:56:35;93816.31;;;12.45;51.85
72308;BME280;60257;42.638;23.376;2023-04-03T10:58:33;93818.88;;;12.71;50.86
72308;BME280;60257;42.638;23.376;2023-04-03T11:01:06;93824.72;;;12.66;52.82
72308;BME280;60257;42.638;23.376;2023-04-03T11:03:38;93808.44;;;12.43;53.49
72308;BME280;60257;42.638;23.376;2023-04-03T11:06:09;93826.31;;;12.23;53.68
72308;BME280;60257;42.638;23.376;2023-04-03T11:08:44;93804.19;;;12.12;54.78
72308;BME280;60257;42.638;23.376;2023-04-03T11:11:36;93825.91;;;12.24;54.99
72308;BME280;60257;42.638;23.376;2023-04-03T11:14:01;93832.78;;;12.04;54.61
72308;BME280;60257;42.638;23.376;2023-04-03T11:16:31;93823.16;;;11.87;55.73
72308;BME280;60257;42.638;23.376;2023-04-03T11:19:21;93821.56;;;11.86;58.71
72308;BME280;60257;42.638;23.376;2023-04-03T11:22:09;93807.63;;;11.69;58.26
72308;BME280;60257;42.638;23.376;2023-04-03T11:24:39;93818.94;;;11.64;59.30
72308;BME280;60257;42.638;23.376;2023-04-03T11:27:15;93820.16;;;11.70;60.88
72308;BME280;60257;42.638;23.376;2023-04-03T11:29:43;93825.56;;;11.59;62.08
72308;BME280;60257;42.638;23.376;2023-04-03T11:35:01;93823.31;;;11.68;61.19
72308;BME280;60257;42.638;23.376;2023-04-03T11:37:43;93827.50;;;11.58;62.18
72308;BME280;60257;42.638;23.376;2023-04-03T11:43:06;93830.28;;;11.32;64.67
72308;BME280;60257;42.638;23.376;2023-04-03T11:45:40;93833.31;;;11.24;65.54
72308;BME280;60257;42.638;23.376;2023-04-03T11:50:47;93828.84;;;11.12;66.53
72308;BME280;60257;42.638;23.376;2023-04-03T11:55:58;93831.91;;;10.80;68.04
72308;BME280;60257;42.638;23.376;2023-04-03T11:58:29;93839.94;;;10.70;69.69
72308;BME280;60257;42.638;23.376;2023-04-03T12:00:59;93832.41;;;10.63;69.74
72308;BME280;60257;42.638;23.376;2023-04-03T12:05:57;93845.09;;;10.49;70.46
72308;BME280;60257;42.638;23.376;2023-04-03T12:16:32;93844.19;;;10.41;72.90
72308;BME280;60257;42.638;23.376;2023-04-03T12:19:04;93835.41;;;10.55;72.46
72308;BME280;60257;42.638;23.376;2023-04-03T12:40:50;93805.44;;;10.20;75.25
72308;BME280;60257;42.638;23.376;2023-04-03T12:45:56;93789.66;;;10.13;75.54
72308;BME280;60257;42.638;23.376;2023-04-03T12:48:28;93790.81;;;10.12;76.17
72308;BME280;60257;42.638;23.376;2023-04-03T12:50:56;93783.75;;;10.11;76.24
72308;BME280;60257;42.638;23.376;2023-04-03T12:53:28;93775.41;;;10.04;76.69
72308;BME280;60257;42.638;23.376;2023-04-03T12:56:24;93781.91;;;9.96;76.20
72308;BME280;60257;42.638;23.376;2023-04-03T12:58:54;93766.19;;;9.70;75.37
72308;BME280;60257;42.638;23.376;2023-04-03T13:01:26;93783.66;;;9.85;76.30
72308;BME280;60257;42.638;23.376;2023-04-03T13:03:54;93754.50;;;9.73;75.98
72308;BME280;60257;42.638;23.376;2023-04-03T13:06:42;93782.94;;;9.88;76.34
72308;BME280;60257;42.638;23.376;2023-04-03T13:09:23;93776.97;;;9.82;76.51
72308;BME280;60257;42.638;23.376;2023-04-03T13:11:58;93778.84;;;9.78;76.26
72308;BME280;60257;42.638;23.376;2023-04-03T13:14:26;93776.69;;;9.68;76.94
72308;BME280;60257;42.638;23.376;2023-04-03T13:16:54;93781.88;;;9.73;77.13
72308;BME280;60257;42.638;23.376;2023-04-03T13:19:23;93786.44;;;9.65;77.20
72308;BME280;60257;42.638;23.376;2023-04-03T13:21:49;93779.59;;;9.56;77.67
72308;BME280;60257;42.638;23.376;2023-04-03T13:24:18;93774.78;;;9.49;78.54
72308;BME280;60257;42.638;23.376;2023-04-03T13:26:44;93768.25;;;9.35;79.41
72308;BME280;60257;42.638;23.376;2023-04-03T13:29:27;93765.69;;;9.45;78.93
72308;BME280;60257;42.638;23.376;2023-04-03T13:31:55;93763.78;;;9.26;79.89
72308;BME280;60257;42.638;23.376;2023-04-03T13:34:22;93760.75;;;9.32;79.69
72308;BME280;60257;42.638;23.376;2023-04-03T13:36:56;93770.25;;;9.38;79.13
72308;BME280;60257;42.638;23.376;2023-04-03T13:39:28;93768.59;;;9.33;79.70
72308;BME280;60257;42.638;23.376;2023-04-03T13:42:00;93771.69;;;9.32;79.05
72308;BME280;60257;42.638;23.376;2023-04-03T13:44:36;93767.75;;;9.29;79.42
72308;BME280;60257;42.638;23.376;2023-04-03T13:49:45;93765.13;;;9.17;80.48
72308;BME280;60257;42.638;23.376;2023-04-03T13:55:00;93768.16;;;9.12;81.12
72308;BME280;60257;42.638;23.376;2023-04-03T13:57:27;93756.59;;;9.18;81.33
72308;BME280;60257;42.638;23.376;2023-04-03T13:59:53;93761.75;;;9.23;81.21
72308;BME280;60257;42.638;23.376;2023-04-03T14:02:28;93761.16;;;9.14;81.50
72308;BME280;60257;42.638;23.376;2023-04-03T14:04:57;93753.13;;;9.02;81.90
72308;BME280;60257;42.638;23.376;2023-04-03T14:07:26;93750.88;;;9.08;81.74
72308;BME280;60257;42.638;23.376;2023-04-03T14:09:52;93746.66;;;9.10;81.96
72308;BME280;60257;42.638;23.376;2023-04-03T14:14:51;93734.56;;;9.11;81.46
72308;BME280;60257;42.638;23.376;2023-04-03T14:17:19;93741.75;;;9.19;81.51
72308;BME280;60257;42.638;23.376;2023-04-03T14:19:47;93745.16;;;9.13;81.54
72308;BME280;60257;42.638;23.376;2023-04-03T14:22:15;93746.28;;;9.12;81.53
72308;BME280;60257;42.638;23.376;2023-04-03T14:24:41;93734.06;;;9.06;81.49
72308;BME280;60257;42.638;23.376;2023-04-03T14:27:39;93739.66;;;9.13;81.08
72308;BME280;60257;42.638;23.376;2023-04-03T14:30:06;93744.25;;;9.09;81.35